createdAt,value
2019-05-22T00:05:04.126Z,95.60
2019-05-22T00:10:10.661Z,95.30
2019-05-22T00:15:18.922Z,95.50
2019-05-22T00:20:24.770Z,95.50
2019-05-22T00:25:40.997Z,95.60
2019-05-22T00:30:47.878Z,95.70
2019-05-22T00:35:56.559Z,95.70
2019-05-22T00:41:12.755Z,95.60
2019-05-22T00:46:19.459Z,96.00
2019-05-22T00:51:29.595Z,95.80
2019-05-22T01:07:55.737Z,96.10
2019-05-22T01:13:00.974Z,96.20
2019-05-22T01:18:10.321Z,95.90
2019-05-22T01:23:41.156Z,95.50
2019-05-22T01:28:49.237Z,95.50
2019-05-22T01:34:30.983Z,95.70
2019-05-22T01:40:06.612Z,96.00
2019-05-22T01:45:31.154Z,96.40
2019-05-22T01:51:16.778Z,95.80
2019-05-22T01:56:23.090Z,95.30
2019-05-22T02:01:31.042Z,95.30
2019-05-22T02:07:00.128Z,95.40
2019-05-22T02:12:23.120Z,95.10
2019-05-22T02:17:39.669Z,95.40
2019-05-22T02:22:46.774Z,95.20
2019-05-22T02:27:52.660Z,95.10
2019-05-22T02:32:57.371Z,95.00
2019-05-22T02:38:06.418Z,95.00
2019-05-22T02:43:15.615Z,95.00
2019-05-22T02:48:43.457Z,94.90
2019-05-22T02:54:11.009Z,94.80
2019-05-22T02:59:18.336Z,95.10
2019-05-22T03:04:25.765Z,94.60
2019-05-22T03:15:38.116Z,94.60
2019-05-22T03:20:52.762Z,94.80
2019-05-22T03:26:23.759Z,94.60
2019-05-22T03:32:19.237Z,94.40
2019-05-22T03:37:42.853Z,94.80
2019-05-22T03:42:47.051Z,94.70
2019-05-22T03:47:51.690Z,94.40
2019-05-22T03:58:57.572Z,94.40
2019-05-22T04:04:03.728Z,94.40
2019-05-22T04:09:19.295Z,94.20
2019-05-22T04:14:30.884Z,94.30
2019-05-22T04:19:48.364Z,94.40
2019-05-22T04:24:42.136Z,94.20
2019-05-22T04:29:48.628Z,94.30
2019-05-22T04:34:53.869Z,94.10
2019-05-22T04:40:59.689Z,94.50
2019-05-22T04:46:10.050Z,94.30
2019-05-22T04:51:29.006Z,94.20
2019-05-22T04:56:34.818Z,94.30
2019-05-22T05:01:40.203Z,94.30
2019-05-22T05:06:47.915Z,94.30
2019-05-22T05:11:55.146Z,94.40
2019-05-22T05:17:01.672Z,94.40
2019-05-22T05:22:06.343Z,94.40
2019-05-22T05:27:12.155Z,94.80
2019-05-22T05:32:16.468Z,94.70
2019-05-22T05:37:22.937Z,94.90
2019-05-22T05:42:31.634Z,94.30
2019-05-22T05:47:38.005Z,94.20
2019-05-22T05:52:43.775Z,94.20
2019-05-22T05:58:33.285Z,94.20
2019-05-22T06:03:42.865Z,94.10
2019-05-22T06:08:52.120Z,94.00
2019-05-22T06:13:58.093Z,94.00
2019-05-22T06:19:07.733Z,93.80
2019-05-22T06:24:46.984Z,93.90
2019-05-22T06:30:06.485Z,93.80
2019-05-22T06:35:12.534Z,93.70
2019-05-22T06:40:17.717Z,93.50
2019-05-22T06:45:30.608Z,93.50
2019-05-22T06:50:34.980Z,93.40
2019-05-22T06:55:39.336Z,93.40
2019-05-22T07:00:48.565Z,93.30
2019-05-22T07:05:57.314Z,93.20
2019-05-22T07:11:04.685Z,93.10
2019-05-22T07:16:15.717Z,92.90
2019-05-22T07:21:33.340Z,92.60
2019-05-22T07:26:31.247Z,92.40
2019-05-22T07:31:35.390Z,92.00
2019-05-22T07:36:40.876Z,92.00
2019-05-22T07:41:45.259Z,92.00
2019-05-22T07:46:52.244Z,91.90
2019-05-22T07:52:01.788Z,92.40
2019-05-22T07:57:07.543Z,92.00
2019-05-22T08:02:13.157Z,92.10
2019-05-22T08:07:20.396Z,92.10
2019-05-22T08:12:25.896Z,92.20
2019-05-22T08:17:33.336Z,91.80
2019-05-22T08:22:40.589Z,91.90
2019-05-22T08:27:45.347Z,91.90
2019-05-22T08:32:57.531Z,91.70
2019-05-22T08:38:04.819Z,91.40
2019-05-22T08:43:10.318Z,91.30
2019-05-22T08:48:18.690Z,91.30
2019-05-22T08:53:28.895Z,91.10
2019-05-22T08:58:34.705Z,91.10
2019-05-22T09:03:41.654Z,91.10
2019-05-22T09:08:46.152Z,91.00
2019-05-22T09:13:52.751Z,91.00
2019-05-22T09:18:57.412Z,90.70
2019-05-22T09:24:02.685Z,90.60
2019-05-22T09:29:07.723Z,90.40
2019-05-22T09:34:15.156Z,90.10
2019-05-22T09:39:19.697Z,90.10
2019-05-22T09:44:23.215Z,90.00
2019-05-22T09:49:27.477Z,89.60
2019-05-22T09:54:34.813Z,88.10
2019-05-22T09:59:39.738Z,87.10
2019-05-22T10:04:43.937Z,86.80
2019-05-22T10:09:49.224Z,86.00
2019-05-22T10:14:58.664Z,84.50
2019-05-22T10:20:03.878Z,84.20
2019-05-22T10:25:17.150Z,83.60
2019-05-22T10:30:24.702Z,83.60
2019-05-22T10:35:31.768Z,83.80
2019-05-22T10:40:38.251Z,82.90
2019-05-22T10:45:45.244Z,80.20
2019-05-22T10:50:49.851Z,79.40
2019-05-22T10:55:54.098Z,79.60
2019-05-22T11:01:01.475Z,78.40
2019-05-22T11:06:08.612Z,78.80
2019-05-22T11:11:13.187Z,78.00
2019-05-22T11:16:19.040Z,75.10
2019-05-22T11:21:25.382Z,74.20
2019-05-22T11:26:30.234Z,73.20
2019-05-22T11:31:37.284Z,71.50
2019-05-22T11:36:42.905Z,71.80
2019-05-22T11:41:50.853Z,72.80
2019-05-22T11:47:02.332Z,71.60
2019-05-22T11:52:07.548Z,71.60
2019-05-22T11:57:12.491Z,71.50
2019-05-22T12:02:18.766Z,67.50
2019-05-22T12:07:24.330Z,69.10
2019-05-22T12:12:30.292Z,67.50
2019-05-22T12:17:38.761Z,70.70
2019-05-22T12:22:43.544Z,67.50
2019-05-22T12:27:51.005Z,68.00
2019-05-22T12:33:12.584Z,68.80
2019-05-22T12:38:11.491Z,69.10
2019-05-22T12:43:16.328Z,63.50
2019-05-22T12:48:27.875Z,63.10
2019-05-22T12:53:35.735Z,68.10
2019-05-22T12:58:40.301Z,69.20
2019-05-22T13:03:46.807Z,65.90
2019-05-22T13:08:55.089Z,68.60
2019-05-22T13:13:59.369Z,67.40
2019-05-22T13:19:06.391Z,67.60
2019-05-22T13:24:27.216Z,66.60
2019-05-22T13:29:32.742Z,65.00
2019-05-22T13:34:38.412Z,64.80
2019-05-22T13:39:42.724Z,61.10
2019-05-22T13:44:47.501Z,62.40
2019-05-22T13:49:52.416Z,63.60
2019-05-22T13:54:57.366Z,65.40
2019-05-22T14:00:03.978Z,61.90
2019-05-22T14:05:13.683Z,61.60
2019-05-22T14:10:17.764Z,61.30
2019-05-22T14:15:22.099Z,57.80
2019-05-22T14:20:26.285Z,61.00
2019-05-22T14:25:30.659Z,66.90
2019-05-22T14:30:35.042Z,63.60
2019-05-22T14:35:48.807Z,63.20
2019-05-22T14:40:49.844Z,59.70
2019-05-22T14:45:56.504Z,57.20
2019-05-22T14:51:02.758Z,60.70
2019-05-22T14:56:13.416Z,56.70
2019-05-22T15:01:23.058Z,55.00
2019-05-22T15:06:28.744Z,65.90
2019-05-22T15:11:33.083Z,63.60
2019-05-22T15:16:42.283Z,63.80
2019-05-22T15:21:46.903Z,62.90
2019-05-22T15:26:52.724Z,67.10
2019-05-22T15:32:04.355Z,66.10
2019-05-22T15:37:11.262Z,63.50
2019-05-22T15:42:35.912Z,58.80
2019-05-22T15:47:54.833Z,62.60
2019-05-22T15:52:55.505Z,60.40
2019-05-22T15:58:02.702Z,63.00
2019-05-22T16:03:13.657Z,60.90
2019-05-22T16:08:18.205Z,61.20
2019-05-22T16:13:25.344Z,58.90
2019-05-22T16:18:32.920Z,60.50
2019-05-22T16:23:38.624Z,58.80
2019-05-22T16:28:48.881Z,60.70
2019-05-22T16:33:53.615Z,61.40
2019-05-22T16:38:58.218Z,60.60
2019-05-22T16:44:10.402Z,60.40
2019-05-22T16:49:15.264Z,62.90
2019-05-22T16:54:21.089Z,60.90
2019-05-22T16:59:26.215Z,60.50
2019-05-22T17:04:36.949Z,60.60
2019-05-22T17:09:44.618Z,60.30
2019-05-22T17:14:49.689Z,62.30
2019-05-22T17:19:54.879Z,61.70
2019-05-22T17:24:59.266Z,63.70
2019-05-22T17:30:10.606Z,62.90
2019-05-22T17:35:13.507Z,63.00
2019-05-22T17:40:22.454Z,63.00
2019-05-22T17:45:28.164Z,63.80
2019-05-22T17:50:34.166Z,64.80
2019-05-22T17:55:40.757Z,63.60
2019-05-22T18:00:50.648Z,64.70
2019-05-22T18:05:55.160Z,65.90
2019-05-22T18:11:00.476Z,67.40
2019-05-22T18:16:11.198Z,68.10
2019-05-22T18:21:18.126Z,68.70
2019-05-22T18:26:23.196Z,69.80
2019-05-22T18:31:30.312Z,70.70
2019-05-22T18:36:39.120Z,71.20
2019-05-22T18:41:43.254Z,71.70
2019-05-22T18:46:47.938Z,72.40
2019-05-22T18:51:54.049Z,73.00
2019-05-22T18:56:59.788Z,73.40
2019-05-22T19:02:04.404Z,74.10
2019-05-22T19:07:07.643Z,74.40
2019-05-22T19:12:14.535Z,75.00
2019-05-22T19:17:20.233Z,75.40
2019-05-22T19:22:26.410Z,76.70
2019-05-22T19:27:31.153Z,77.60
2019-05-22T19:32:35.354Z,79.50
2019-05-22T19:37:40.631Z,80.80
2019-05-22T19:42:49.632Z,81.90
2019-05-22T19:47:57.783Z,82.70
2019-05-22T19:53:17.586Z,83.20
2019-05-22T19:58:10.548Z,83.70
2019-05-22T20:03:17.952Z,84.50
2019-05-22T20:08:28.770Z,84.70
2019-05-22T20:13:34.002Z,84.60
2019-05-22T20:18:38.077Z,84.50
2019-05-22T20:23:43.677Z,85.10
2019-05-22T20:28:50.089Z,85.70
2019-05-22T20:39:45.492Z,86.40
2019-05-22T20:44:49.772Z,89.10
2019-05-22T20:49:55.580Z,88.70
2019-05-22T20:55:01.680Z,87.10
2019-05-22T21:00:08.399Z,87.00
2019-05-22T21:05:13.956Z,87.70
2019-05-22T21:10:24.789Z,87.70
2019-05-22T21:15:29.613Z,88.70
2019-05-22T21:20:51.844Z,89.80
2019-05-22T21:25:42.669Z,90.20
2019-05-22T21:30:47.839Z,89.30
2019-05-22T21:35:53.960Z,89.90
2019-05-22T21:40:59.726Z,89.20
2019-05-22T21:46:03.911Z,90.90
2019-05-22T21:51:09.019Z,90.00
2019-05-22T21:56:13.970Z,90.20
2019-05-22T22:01:27.417Z,90.10
2019-05-22T22:06:33.345Z,90.40
2019-05-22T22:11:38.581Z,90.30
2019-05-22T22:16:50.141Z,90.70
2019-05-22T22:21:57.222Z,90.00
2019-05-22T22:27:01.543Z,90.10
2019-05-22T22:32:10.595Z,90.10
2019-05-22T22:37:19.719Z,90.30
2019-05-22T22:42:26.630Z,90.20
2019-05-22T22:47:37.701Z,90.10
2019-05-22T22:52:46.417Z,90.00
2019-05-22T22:58:15.982Z,90.10
2019-05-22T23:03:14.665Z,90.20
2019-05-22T23:08:29.990Z,90.00
2019-05-22T23:13:35.660Z,90.00
2019-05-22T23:19:34.196Z,90.00
2019-05-22T23:24:39.615Z,90.40
2019-05-22T23:29:44.716Z,90.40
2019-05-22T23:34:49.386Z,91.20
2019-05-22T23:39:55.386Z,90.40
2019-05-22T23:45:02.913Z,90.50
2019-05-22T23:50:08.488Z,90.50
2019-05-22T23:55:14.813Z,91.60
